Time;durP1;ratioP1;P1;durP2;ratioP2;P2;SDS_P1;SDS_P2;PMS_P1;PMS_P2;Temp;Humidity;BMP_temperature;BMP_pressure;BME280_temperature;BME280_humidity;BME280_pressure;Samples;Min_cycle;Max_cycle;Signal;HPM_P1;HPM_P2
2023/07/01 00:01:25;;;;;;;5.57;5.07;;;;;;;;;;4973068;28;20216;-86
2023/07/01 00:03:53;;;;;;;5.53;4.23;;;;;;;;;;4972654;28;20244;-85
2023/07/01 00:06:22;;;;;;;8.20;7.40;;;;;;;;;;4972610;28;20211;-86
2023/07/01 00:08:51;;;;;;;8.27;7.50;;;;;;;;;;4973144;28;20277;-86
2023/07/01 00:11:19;;;;;;;7.83;7.13;;;;;;;;;;4972742;28;20201;-86
2023/07/01 00:13:49;;;;;;;5.40;4.87;;;;;;;;;;4972240;28;20228;-86
2023/07/01 00:16:18;;;;;;;9.27;8.33;;;;;;;;;;4972710;28;20206;-86
2023/07/01 00:18:47;;;;;;;8.40;7.63;;;;;;;;;;4972542;28;20218;-85
2023/07/01 00:21:15;;;;;;;8.60;7.53;;;;;;;;;;4972598;28;20235;-88
2023/07/01 00:23:44;;;;;;;10.50;9.37;;;;;;;;;;4972865;28;20262;-88
2023/07/01 00:26:12;;;;;;;11.20;10.20;;;;;;;;;;4972344;28;20204;-88
2023/07/01 00:28:41;;;;;;;12.90;10.27;;;;;;;;;;4972322;28;20226;-88
2023/07/01 00:31:11;;;;;;;11.80;10.60;;;;;;;;;;4971781;28;20216;-88
2023/07/01 00:33:39;;;;;;;11.83;10.80;;;;;;;;;;4972279;28;20225;-88
2023/07/01 00:36:08;;;;;;;12.17;8.87;;;;;;;;;;4972240;28;20209;-88
2023/07/01 00:38:36;;;;;;;10.10;8.57;;;;;;;;;;4972401;28;20203;-88
2023/07/01 00:41:05;;;;;;;13.33;11.63;;;;;;;;;;4972206;28;20219;-88
2023/07/01 00:43:33;;;;;;;14.40;13.13;;;;;;;;;;4972371;28;20196;-88
2023/07/01 00:46:02;;;;;;;13.30;9.00;;;;;;;;;;4972595;28;20204;-89
2023/07/01 00:48:32;;;;;;;11.83;4.27;;;;;;;;;;4972114;28;20216;-89
2023/07/01 00:51:00;;;;;;;8.10;7.30;;;;;;;;;;4973272;28;20207;-89
2023/07/01 00:53:29;;;;;;;7.87;6.67;;;;;;;;;;4972472;28;20228;-89
2023/07/01 00:55:57;;;;;;;10.57;8.37;;;;;;;;;;4972070;28;20223;-89
2023/07/01 00:58:26;;;;;;;11.30;9.17;;;;;;;;;;4970899;28;20235;-89
2023/07/01 01:00:56;;;;;;;8.97;8.10;;;;;;;;;;4972499;28;20207;-89
2023/07/01 01:03:27;;;;;;;8.30;7.20;;;;;;;;;;4972429;28;20262;-89
2023/07/01 01:06:01;;;;;;;9.90;7.27;;;;;;;;;;4972060;28;20212;-89
2023/07/01 01:08:33;;;;;;;6.77;6.07;;;;;;;;;;4972379;28;20208;-89
2023/07/01 01:11:03;;;;;;;8.20;7.50;;;;;;;;;;4972338;28;20210;-88
2023/07/01 01:13:32;;;;;;;5.53;5.03;;;;;;;;;;4971677;28;20231;-89
2023/07/01 01:16:02;;;;;;;6.77;6.13;;;;;;;;;;4971658;28;20203;-89
2023/07/01 01:18:32;;;;;;;6.97;6.37;;;;;;;;;;4972263;28;20208;-89
2023/07/01 01:21:02;;;;;;;6.40;5.90;;;;;;;;;;4971919;28;20239;-85
2023/07/01 01:23:36;;;;;;;6.63;6.03;;;;;;;;;;4971706;28;20254;-86
2023/07/01 01:26:06;;;;;;;8.47;7.87;;;;;;;;;;4971388;28;20208;-86
2023/07/01 01:28:37;;;;;;;8.87;8.03;;;;;;;;;;4971747;28;20220;-86
2023/07/01 01:31:06;;;;;;;6.47;5.87;;;;;;;;;;4971020;28;20216;-86
2023/07/01 01:33:35;;;;;;;9.67;8.03;;;;;;;;;;4971408;28;20220;-85
2023/07/01 01:36:07;;;;;;;8.27;7.50;;;;;;;;;;4971106;28;20212;-86
2023/07/01 01:38:37;;;;;;;9.90;8.60;;;;;;;;;;4971195;28;20208;-86
2023/07/01 01:41:07;;;;;;;9.10;7.57;;;;;;;;;;4970777;28;20202;-86
2023/07/01 01:43:43;;;;;;;2.93;2.47;;;;;;;;;;4971319;28;20192;-85
2023/07/01 01:46:12;;;;;;;11.00;10.23;;;;;;;;;;4971597;28;20207;-85
2023/07/01 01:48:41;;;;;;;9.00;7.77;;;;;;;;;;4971169;28;20284;-85
2023/07/01 01:51:10;;;;;;;10.83;9.80;;;;;;;;;;4971015;28;20208;-86
2023/07/01 01:53:39;;;;;;;10.47;9.47;;;;;;;;;;4970816;28;20217;-86
2023/07/01 01:56:08;;;;;;;12.07;8.97;;;;;;;;;;4970151;28;20213;-86
2023/07/01 01:58:37;;;;;;;7.50;6.60;;;;;;;;;;4971197;28;20244;-86
2023/07/01 02:01:07;;;;;;;6.20;4.40;;;;;;;;;;4970949;28;20239;-86
2023/07/01 02:03:35;;;;;;;10.13;9.23;;;;;;;;;;4971250;28;20201;-88
2023/07/01 02:06:04;;;;;;;10.73;9.83;;;;;;;;;;4970443;28;20262;-86
2023/07/01 02:08:33;;;;;;;9.13;8.30;;;;;;;;;;4970695;28;20202;-86
2023/07/01 02:11:01;;;;;;;4.70;4.27;;;;;;;;;;4970914;28;20214;-86
2023/07/01 02:13:29;;;;;;;9.73;8.93;;;;;;;;;;4970279;28;20244;-86
2023/07/01 02:15:58;;;;;;;8.83;7.20;;;;;;;;;;4970132;28;20215;-86
2023/07/01 02:18:28;;;;;;;8.77;7.97;;;;;;;;;;4970593;28;20231;-86
2023/07/01 02:20:56;;;;;;;11.33;10.33;;;;;;;;;;4971045;28;20209;-86
2023/07/01 02:23:24;;;;;;;10.60;9.37;;;;;;;;;;4969911;28;20202;-86
2023/07/01 02:25:53;;;;;;;12.57;11.37;;;;;;;;;;4970619;28;20205;-86
2023/07/01 02:28:21;;;;;;;11.87;10.60;;;;;;;;;;4970808;28;20231;-86
2023/07/01 02:30:50;;;;;;;11.97;10.97;;;;;;;;;;4970869;28;20200;-85
2023/07/01 02:33:19;;;;;;;13.50;12.20;;;;;;;;;;4970438;28;20208;-86
2023/07/01 02:35:48;;;;;;;10.60;9.70;;;;;;;;;;4970939;28;20208;-86
2023/07/01 02:38:17;;;;;;;12.67;11.50;;;;;;;;;;4970479;28;20204;-86
2023/07/01 02:40:45;;;;;;;10.97;9.93;;;;;;;;;;4969856;28;20270;-86
2023/07/01 02:43:14;;;;;;;12.27;11.17;;;;;;;;;;4970361;28;20209;-86
2023/07/01 02:45:42;;;;;;;10.27;8.87;;;;;;;;;;4970647;28;20201;-89
2023/07/01 02:48:11;;;;;;;5.77;5.20;;;;;;;;;;4970692;28;20219;-89
2023/07/01 02:50:39;;;;;;;11.57;10.57;;;;;;;;;;4970081;28;20205;-89
2023/07/01 02:53:09;;;;;;;6.20;5.63;;;;;;;;;;4970396;28;20205;-89
2023/07/01 02:55:38;;;;;;;8.97;8.10;;;;;;;;;;4970578;28;20232;-89
2023/07/01 02:58:06;;;;;;;3.53;3.23;;;;;;;;;;4970239;28;20228;-89
2023/07/01 03:00:35;;;;;;;6.97;6.27;;;;;;;;;;4970533;28;20350;-89
2023/07/01 03:03:06;;;;;;;7.33;6.63;;;;;;;;;;4970851;28;20218;-89
2023/07/01 03:05:35;;;;;;;7.03;6.40;;;;;;;;;;4970426;28;20208;-86
2023/07/01 03:08:05;;;;;;;5.87;4.90;;;;;;;;;;4969788;28;20226;-86
2023/07/01 03:10:34;;;;;;;5.07;4.67;;;;;;;;;;4971065;28;20201;-86
2023/07/01 03:13:03;;;;;;;6.73;5.40;;;;;;;;;;4970328;28;20208;-86
2023/07/01 03:15:31;;;;;;;5.77;5.03;;;;;;;;;;4969496;28;20228;-86
2023/07/01 03:18:00;;;;;;;4.93;4.53;;;;;;;;;;4969683;28;20256;-86
2023/07/01 03:20:28;;;;;;;4.90;4.50;;;;;;;;;;4970510;28;20259;-86
2023/07/01 03:22:57;;;;;;;1.47;1.37;;;;;;;;;;4972989;28;20254;-85
2023/07/01 03:25:26;;;;;;;4.97;4.57;;;;;;;;;;4973368;28;20204;-86
2023/07/01 03:27:56;;;;;;;4.33;3.17;;;;;;;;;;4973201;28;20225;-86
2023/07/01 03:30:29;;;;;;;4.03;3.23;;;;;;;;;;4973277;28;20197;-86
2023/07/01 03:32:58;;;;;;;4.73;3.43;;;;;;;;;;4972515;28;20204;-86
2023/07/01 03:35:26;;;;;;;5.20;4.43;;;;;;;;;;4973398;28;20217;-86
2023/07/01 03:37:55;;;;;;;3.50;3.20;;;;;;;;;;4972990;28;20201;-86
2023/07/01 03:40:23;;;;;;;4.10;2.90;;;;;;;;;;4972905;28;20197;-86
2023/07/01 03:42:52;;;;;;;2.60;2.40;;;;;;;;;;4973011;28;20206;-86
2023/07/01 03:45:22;;;;;;;6.10;3.70;;;;;;;;;;4973451;28;20209;-86
2023/07/01 03:47:50;;;;;;;2.17;1.57;;;;;;;;;;4973363;28;20209;-86
2023/07/01 03:50:19;;;;;;;6.10;3.77;;;;;;;;;;4972730;28;20208;-86
2023/07/01 03:52:47;;;;;;;8.23;3.63;;;;;;;;;;4973089;28;20218;-85
2023/07/01 03:55:16;;;;;;;10.23;3.63;;;;;;;;;;4972763;28;20225;-86
2023/07/01 03:57:44;;;;;;;5.30;1.97;;;;;;;;;;4972502;28;20241;-86
2023/07/01 04:00:17;;;;;;;2.97;1.80;;;;;;;;;;4972423;28;20209;-86
2023/07/01 04:02:48;;;;;;;2.17;1.93;;;;;;;;;;4973331;28;20242;-88
2023/07/01 04:05:17;;;;;;;5.53;1.93;;;;;;;;;;4972654;28;20205;-88
2023/07/01 04:07:47;;;;;;;9.00;5.03;;;;;;;;;;4972615;28;20200;-88
2023/07/01 04:10:16;;;;;;;6.77;3.13;;;;;;;;;;4973183;28;20223;-88
2023/07/01 04:12:45;;;;;;;4.73;3.10;;;;;;;;;;4973247;28;20228;-88
2023/07/01 04:15:13;;;;;;;2.17;1.43;;;;;;;;;;4972113;28;20237;-88
2023/07/01 04:17:42;;;;;;;4.93;2.90;;;;;;;;;;4973282;28;20232;-89
2023/07/01 04:20:14;;;;;;;2.27;1.40;;;;;;;;;;4972735;28;20197;-89
2023/07/01 04:22:42;;;;;;;2.37;1.93;;;;;;;;;;4972979;28;20215;-89
2023/07/01 04:25:11;;;;;;;2.47;1.87;;;;;;;;;;4972728;28;20210;-89
2023/07/01 04:27:42;;;;;;;6.67;2.67;;;;;;;;;;4972605;28;20228;-89
2023/07/01 04:30:12;;;;;;;7.63;3.90;;;;;;;;;;4972721;28;20212;-89
2023/07/01 04:32:41;;;;;;;1.10;1.10;;;;;;;;;;4972767;28;20207;-89
2023/07/01 04:35:09;;;;;;;4.23;2.27;;;;;;;;;;4972279;28;20224;-89
2023/07/01 04:37:41;;;;;;;2.83;1.50;;;;;;;;;;4972431;28;20223;-86
2023/07/01 04:40:12;;;;;;;2.13;1.93;;;;;;;;;;4972258;28;20202;-86
2023/07/01 04:42:45;;;;;;;1.87;1.77;;;;;;;;;;4971978;28;20201;-86
2023/07/01 04:45:14;;;;;;;6.60;2.30;;;;;;;;;;4972850;28;20205;-86
2023/07/01 04:47:43;;;;;;;3.13;2.70;;;;;;;;;;4972376;28;20205;-85
2023/07/01 04:50:13;;;;;;;4.77;2.80;;;;;;;;;;4971667;28;20212;-86
2023/07/01 04:52:43;;;;;;;1.53;1.20;;;;;;;;;;4972532;28;20248;-86
2023/07/01 04:55:12;;;;;;;5.37;3.80;;;;;;;;;;4972400;28;20225;-85
2023/07/01 04:57:41;;;;;;;5.17;1.67;;;;;;;;;;4971750;28;20228;-85
2023/07/01 05:00:10;;;;;;;3.10;1.57;;;;;;;;;;4972304;28;20201;-86
2023/07/01 05:02:40;;;;;;;2.50;2.30;;;;;;;;;;4972548;28;20205;-86
2023/07/01 05:05:09;;;;;;;2.53;2.10;;;;;;;;;;4972412;28;20270;-86
2023/07/01 05:07:38;;;;;;;2.73;1.83;;;;;;;;;;4971453;28;20212;-86
2023/07/01 05:10:08;;;;;;;4.53;2.60;;;;;;;;;;4971732;28;20212;-86
2023/07/01 05:12:37;;;;;;;3.80;2.77;;;;;;;;;;4972119;28;20201;-86
2023/07/01 05:15:06;;;;;;;16.13;4.63;;;;;;;;;;4971349;28;20213;-86
2023/07/01 05:17:34;;;;;;;3.00;1.60;;;;;;;;;;4971308;28;20211;-86
2023/07/01 05:20:04;;;;;;;2.47;1.87;;;;;;;;;;4971701;28;20254;-86
2023/07/01 05:22:33;;;;;;;2.10;1.90;;;;;;;;;;4971796;28;20204;-86
2023/07/01 05:25:01;;;;;;;3.50;1.57;;;;;;;;;;4971436;28;20224;-92
2023/07/01 05:27:31;;;;;;;3.30;1.87;;;;;;;;;;4972597;28;20224;-92
2023/07/01 05:30:00;;;;;;;1.63;1.53;;;;;;;;;;4972490;28;20209;-91
2023/07/01 05:32:28;;;;;;;4.27;2.83;;;;;;;;;;4973159;28;20205;-91
2023/07/01 05:34:57;;;;;;;4.90;1.50;;;;;;;;;;4972411;28;20197;-92
2023/07/01 05:37:25;;;;;;;1.03;0.73;;;;;;;;;;4972311;28;20201;-92
2023/07/01 05:39:54;;;;;;;2.77;2.27;;;;;;;;;;4971957;28;20210;-91
2023/07/01 05:42:23;;;;;;;5.00;2.27;;;;;;;;;;4972186;28;20212;-92
2023/07/01 05:44:52;;;;;;;1.03;1.03;;;;;;;;;;4971311;28;20205;-91
2023/07/01 05:47:21;;;;;;;3.67;2.63;;;;;;;;;;4972226;28;20201;-91
2023/07/01 05:49:49;;;;;;;0.83;0.83;;;;;;;;;;4972214;28;20228;-91
2023/07/01 05:52:18;;;;;;;2.70;2.50;;;;;;;;;;4972287;28;20220;-91
2023/07/01 05:54:46;;;;;;;2.93;1.60;;;;;;;;;;4972873;28;20224;-92
2023/07/01 05:57:15;;;;;;;1.13;1.13;;;;;;;;;;4972349;28;20245;-92
2023/07/01 05:59:43;;;;;;;1.50;1.40;;;;;;;;;;4971866;28;20203;-92
2023/07/01 06:02:13;;;;;;;1.27;1.17;;;;;;;;;;4971246;28;20205;-86
2023/07/01 06:04:42;;;;;;;1.47;1.23;;;;;;;;;;4970914;28;20243;-86
2023/07/01 06:07:10;;;;;;;4.67;2.13;;;;;;;;;;4970774;28;20212;-86
2023/07/01 06:09:39;;;;;;;1.13;1.13;;;;;;;;;;4970780;28;20201;-87
2023/07/01 06:12:07;;;;;;;1.80;1.13;;;;;;;;;;4970993;28;20211;-86
2023/07/01 06:14:36;;;;;;;1.80;0.73;;;;;;;;;;4970557;28;20221;-86
2023/07/01 06:17:04;;;;;;;2.23;0.93;;;;;;;;;;4970307;28;20247;-86
2023/07/01 06:19:34;;;;;;;0.83;0.83;;;;;;;;;;4970841;28;20213;-86
2023/07/01 06:22:03;;;;;;;4.83;2.33;;;;;;;;;;4971010;28;20262;-86
2023/07/01 06:24:31;;;;;;;1.43;0.87;;;;;;;;;;4970677;28;20235;-86
2023/07/01 06:27:00;;;;;;;1.53;1.43;;;;;;;;;;4970987;28;20201;-86
2023/07/01 06:29:28;;;;;;;0.70;0.70;;;;;;;;;;4970595;28;20206;-86
2023/07/01 06:31:59;;;;;;;1.57;1.47;;;;;;;;;;4971158;28;20247;-86
2023/07/01 06:34:28;;;;;;;0.70;0.70;;;;;;;;;;4970366;28;20236;-86
2023/07/01 06:36:58;;;;;;;1.57;1.50;;;;;;;;;;4970429;28;20217;-86
2023/07/01 06:39:26;;;;;;;1.00;0.90;;;;;;;;;;4970741;28;20201;-86
2023/07/01 06:41:55;;;;;;;0.93;0.93;;;;;;;;;;4970335;28;20220;-87
2023/07/01 06:44:23;;;;;;;0.63;0.63;;;;;;;;;;4970660;28;20292;-92
2023/07/01 06:46:52;;;;;;;1.00;0.90;;;;;;;;;;4971917;28;20205;-92
2023/07/01 06:49:20;;;;;;;0.77;0.77;;;;;;;;;;4972056;28;20210;-92
2023/07/01 06:51:49;;;;;;;1.03;0.90;;;;;;;;;;4971195;28;20212;-93
2023/07/01 06:54:19;;;;;;;0.77;0.53;;;;;;;;;;4972002;28;20209;-93
2023/07/01 06:56:48;;;;;;;1.27;0.90;;;;;;;;;;4973810;28;20225;-93
2023/07/01 06:59:16;;;;;;;0.83;0.83;;;;;;;;;;4974930;28;20245;-93
2023/07/01 07:01:45;;;;;;;0.80;0.80;;;;;;;;;;4975215;28;20276;-93
2023/07/01 07:04:13;;;;;;;0.50;0.50;;;;;;;;;;4975575;28;20259;-93
2023/07/01 07:06:42;;;;;;;1.13;0.70;;;;;;;;;;4974978;28;20193;-92
2023/07/01 07:09:11;;;;;;;1.80;1.43;;;;;;;;;;4974929;28;20212;-92
2023/07/01 07:11:41;;;;;;;1.83;0.77;;;;;;;;;;4975191;28;20327;-91
2023/07/01 07:14:09;;;;;;;2.03;0.60;;;;;;;;;;4975232;28;20216;-92
2023/07/01 07:16:38;;;;;;;1.27;1.17;;;;;;;;;;4974281;28;20282;-92
2023/07/01 07:19:06;;;;;;;1.07;0.90;;;;;;;;;;4973902;28;20198;-92
2023/07/01 07:21:35;;;;;;;0.83;0.83;;;;;;;;;;4974615;28;20209;-92
2023/07/01 07:24:04;;;;;;;0.90;0.90;;;;;;;;;;4974707;28;20270;-93
2023/07/01 07:26:33;;;;;;;2.27;1.17;;;;;;;;;;4973657;28;20197;-92
2023/07/01 07:29:03;;;;;;;9.80;1.10;;;;;;;;;;4974072;28;20216;-87
2023/07/01 07:31:31;;;;;;;0.53;0.53;;;;;;;;;;4973574;28;20205;-88
2023/07/01 07:34:01;;;;;;;2.70;1.50;;;;;;;;;;4973271;28;20233;-88
2023/07/01 07:36:30;;;;;;;2.80;0.90;;;;;;;;;;4973066;28;20227;-88
2023/07/01 07:38:58;;;;;;;0.60;0.60;;;;;;;;;;4973484;28;20213;-88
2023/07/01 07:41:27;;;;;;;0.90;0.90;;;;;;;;;;4973670;28;20207;-87
2023/07/01 07:43:56;;;;;;;0.50;0.50;;;;;;;;;;4972413;28;20197;-89
2023/07/01 07:46:26;;;;;;;1.13;1.13;;;;;;;;;;4973522;28;20214;-88
2023/07/01 07:48:54;;;;;;;2.20;2.13;;;;;;;;;;4973999;28;20221;-89
2023/07/01 07:51:23;;;;;;;1.70;0.50;;;;;;;;;;4973281;28;20205;-89
2023/07/01 07:53:53;;;;;;;0.93;0.93;;;;;;;;;;4973371;28;20201;-93
2023/07/01 07:56:21;;;;;;;0.60;0.60;;;;;;;;;;4974374;28;20212;-93
2023/07/01 07:58:50;;;;;;;1.17;1.00;;;;;;;;;;4973991;28;20237;-92
2023/07/01 08:01:18;;;;;;;0.30;0.30;;;;;;;;;;4973136;28;20212;-93
2023/07/01 08:03:48;;;;;;;0.70;0.67;;;;;;;;;;4973736;28;20213;-92
2023/07/01 08:06:19;;;;;;;6.50;2.20;;;;;;;;;;4973659;28;20210;-93
2023/07/01 08:08:47;;;;;;;1.10;1.10;;;;;;;;;;4972335;28;20208;-89
2023/07/01 08:11:16;;;;;;;14.23;1.27;;;;;;;;;;4972043;28;20199;-89
2023/07/01 08:13:44;;;;;;;1.37;0.73;;;;;;;;;;4972272;28;20311;-89
2023/07/01 08:16:14;;;;;;;2.17;1.63;;;;;;;;;;4971763;28;20271;-88
2023/07/01 08:18:43;;;;;;;4.27;2.47;;;;;;;;;;4971204;28;20233;-88
2023/07/01 08:21:13;;;;;;;2.17;1.87;;;;;;;;;;4971960;28;20202;-89
2023/07/01 08:23:42;;;;;;;3.47;1.90;;;;;;;;;;4971827;28;20202;-89
2023/07/01 08:26:10;;;;;;;1.80;1.70;;;;;;;;;;4971268;28;20201;-89
2023/07/01 08:28:39;;;;;;;0.20;0.20;;;;;;;;;;4971223;28;20224;-88
2023/07/01 08:31:07;;;;;;;1.30;1.20;;;;;;;;;;4971501;28;20209;-88
2023/07/01 08:33:36;;;;;;;1.40;1.20;;;;;;;;;;4971449;28;20204;-87
2023/07/01 08:36:07;;;;;;;2.00;1.67;;;;;;;;;;4971714;28;20212;-87
2023/07/01 08:38:37;;;;;;;5.97;2.33;;;;;;;;;;4973164;28;20232;-92
2023/07/01 08:41:06;;;;;;;2.67;2.47;;;;;;;;;;4972313;28;20206;-88
2023/07/01 08:43:36;;;;;;;1.83;1.37;;;;;;;;;;4971491;28;20209;-88
2023/07/01 08:46:09;;;;;;;2.50;2.23;;;;;;;;;;4971402;28;20288;-93
2023/07/01 08:48:39;;;;;;;4.50;3.27;;;;;;;;;;4973327;28;20200;-87
2023/07/01 08:51:12;;;;;;;5.20;3.27;;;;;;;;;;4971436;28;20240;-87
2023/07/01 08:53:43;;;;;;;1.40;1.37;;;;;;;;;;4970781;28;20196;-87
2023/07/01 08:56:13;;;;;;;1.80;1.70;;;;;;;;;;4971466;28;20205;-87
2023/07/01 08:58:44;;;;;;;8.53;5.33;;;;;;;;;;4932843;28;1168916;-92
2023/07/01 09:01:15;;;;;;;2.53;1.63;;;;;;;;;;4974299;28;20201;-92
2023/07/01 09:03:43;;;;;;;3.40;2.33;;;;;;;;;;4974622;28;20228;-92
2023/07/01 09:06:12;;;;;;;5.40;3.97;;;;;;;;;;4974569;28;20216;-92
2023/07/01 09:08:42;;;;;;;8.37;5.33;;;;;;;;;;4975396;28;20197;-92
2023/07/01 09:11:12;;;;;;;4.53;3.27;;;;;;;;;;4974724;28;20209;-91
2023/07/01 09:13:44;;;;;;;5.10;2.60;;;;;;;;;;4973400;28;20213;-92
2023/07/01 09:16:13;;;;;;;6.27;4.50;;;;;;;;;;4968804;28;20286;-91
2023/07/01 09:18:44;;;;;;;5.57;3.17;;;;;;;;;;4970524;28;20271;-91
2023/07/01 09:21:18;;;;;;;5.80;3.73;;;;;;;;;;4975079;28;20205;-92
2023/07/01 09:23:51;;;;;;;4.63;2.53;;;;;;;;;;4972707;28;20223;-87
2023/07/01 09:26:20;;;;;;;3.40;2.83;;;;;;;;;;4971612;28;20212;-87
2023/07/01 09:28:50;;;;;;;10.43;5.53;;;;;;;;;;4971442;28;20225;-86
2023/07/01 09:31:19;;;;;;;2.67;2.40;;;;;;;;;;4971799;28;20258;-86
2023/07/01 09:34:01;;;;;;;4.70;2.23;;;;;;;;;;4971772;28;20216;-86
2023/07/01 09:36:31;;;;;;;11.97;5.67;;;;;;;;;;4971207;28;20262;-87
2023/07/01 09:39:02;;;;;;;8.60;3.83;;;;;;;;;;4971479;28;20225;-87
2023/07/01 09:41:30;;;;;;;9.53;3.43;;;;;;;;;;4972196;28;20197;-87
2023/07/01 09:44:02;;;;;;;2.73;2.40;;;;;;;;;;4971016;28;20206;-88
2023/07/01 09:46:41;;;;;;;11.67;4.93;;;;;;;;;;4971260;28;20201;-88
2023/07/01 09:49:10;;;;;;;5.90;3.90;;;;;;;;;;4971480;28;20201;-91
2023/07/01 09:51:47;;;;;;;10.43;4.13;;;;;;;;;;4971697;28;20210;-91
2023/07/01 09:54:27;;;;;;;13.10;5.77;;;;;;;;;;4971048;28;20205;-90
2023/07/01 09:56:57;;;;;;;14.53;4.47;;;;;;;;;;4971355;28;20205;-90
2023/07/01 09:59:26;;;;;;;4.70;3.10;;;;;;;;;;4971811;28;20213;-91
2023/07/01 10:01:55;;;;;;;3.87;3.50;;;;;;;;;;4970814;28;20208;-90
2023/07/01 10:04:28;;;;;;;5.10;3.37;;;;;;;;;;4971555;28;20238;-90
2023/07/01 10:06:58;;;;;;;6.53;4.53;;;;;;;;;;4971190;28;20241;-90
2023/07/01 10:09:29;;;;;;;3.63;2.73;;;;;;;;;;4971391;28;20250;-89
2023/07/01 10:11:59;;;;;;;4.27;2.47;;;;;;;;;;4970998;28;20205;-89
2023/07/01 10:14:28;;;;;;;1.63;1.07;;;;;;;;;;4971505;28;20254;-90
2023/07/01 10:16:57;;;;;;;5.27;2.87;;;;;;;;;;4971167;28;20276;-89
2023/07/01 10:19:27;;;;;;;4.20;3.80;;;;;;;;;;4971195;28;20224;-89
2023/07/01 10:22:15;;;;;;;12.07;5.67;;;;;;;;;;4971252;28;20263;-87
2023/07/01 10:24:45;;;;;;;5.13;4.00;;;;;;;;;;4970954;28;20197;-86
2023/07/01 10:27:13;;;;;;;8.13;3.17;;;;;;;;;;4970597;28;20232;-86
2023/07/01 10:29:56;;;;;;;3.60;3.30;;;;;;;;;;4970569;28;20236;-86
2023/07/01 10:32:34;;;;;;;9.20;5.90;;;;;;;;;;4970820;28;20216;-88
2023/07/01 10:35:16;;;;;;;7.73;2.73;;;;;;;;;;4971051;28;20211;-88
2023/07/01 10:37:45;;;;;;;10.07;5.17;;;;;;;;;;4971163;28;20280;-88
2023/07/01 10:40:33;;;;;;;9.40;5.60;;;;;;;;;;4971132;28;20208;-88
2023/07/01 10:43:16;;;;;;;3.73;2.57;;;;;;;;;;4971254;28;20275;-88
2023/07/01 10:45:46;;;;;;;7.53;3.60;;;;;;;;;;4970344;28;20277;-88
2023/07/01 10:48:15;;;;;;;10.57;5.23;;;;;;;;;;4971024;28;20201;-88
2023/07/01 10:51:03;;;;;;;5.20;3.27;;;;;;;;;;4970765;28;20227;-88
2023/07/01 10:53:31;;;;;;;5.20;4.00;;;;;;;;;;4970225;28;20205;-88
2023/07/01 10:56:13;;;;;;;4.40;2.90;;;;;;;;;;4970651;28;20256;-88
2023/07/01 10:58:42;;;;;;;11.60;6.07;;;;;;;;;;4970230;28;20238;-88
2023/07/01 11:01:32;;;;;;;8.17;2.33;;;;;;;;;;4970521;28;20254;-88
2023/07/01 11:04:00;;;;;;;8.67;4.93;;;;;;;;;;4969950;28;20202;-88
2023/07/01 11:06:29;;;;;;;7.73;5.43;;;;;;;;;;4969757;28;20201;-86
2023/07/01 11:08:58;;;;;;;4.63;4.23;;;;;;;;;;4970631;28;20215;-86
2023/07/01 11:11:28;;;;;;;4.90;3.77;;;;;;;;;;4970290;28;20211;-85
2023/07/01 11:14:00;;;;;;;4.23;2.93;;;;;;;;;;4970127;28;20252;-86
2023/07/01 11:16:32;;;;;;;8.57;4.20;;;;;;;;;;4969953;28;20220;-86
2023/07/01 11:19:02;;;;;;;1.60;1.17;;;;;;;;;;4970034;28;20221;-85
2023/07/01 11:21:31;;;;;;;5.43;3.23;;;;;;;;;;4969641;28;20201;-85
2023/07/01 11:24:01;;;;;;;2.80;2.30;;;;;;;;;;4970052;28;20209;-86
2023/07/01 11:26:30;;;;;;;4.50;1.87;;;;;;;;;;4969882;28;20206;-85
2023/07/01 11:28:59;;;;;;;12.60;3.90;;;;;;;;;;4969258;28;20243;-86
2023/07/01 11:31:32;;;;;;;2.77;1.60;;;;;;;;;;4970380;28;20313;-86
2023/07/01 11:34:02;;;;;;;3.20;1.80;;;;;;;;;;4970587;28;20258;-86
2023/07/01 11:36:35;;;;;;;4.73;2.33;;;;;;;;;;4969718;28;20210;-86
2023/07/01 11:39:05;;;;;;;10.30;3.77;;;;;;;;;;4969761;28;20231;-86
2023/07/01 11:41:33;;;;;;;3.47;2.50;;;;;;;;;;4970256;28;20209;-85
2023/07/01 11:44:03;;;;;;;4.13;2.83;;;;;;;;;;4973214;28;20209;-86
2023/07/01 11:46:33;;;;;;;5.57;3.10;;;;;;;;;;4972560;28;20301;-86
2023/07/01 11:49:15;;;;;;;2.33;1.67;;;;;;;;;;4973151;28;20262;-87
2023/07/01 11:51:45;;;;;;;6.00;2.23;;;;;;;;;;4972995;28;20219;-86
2023/07/01 11:54:14;;;;;;;8.73;2.33;;;;;;;;;;4972344;28;20206;-86
2023/07/01 11:56:43;;;;;;;2.10;1.90;;;;;;;;;;4972788;28;20266;-86
2023/07/01 11:59:11;;;;;;;1.70;1.50;;;;;;;;;;4972602;28;20236;-85
2023/07/01 12:01:41;;;;;;;8.00;3.23;;;;;;;;;;4973113;28;20202;-85
2023/07/01 12:04:17;;;;;;;1.87;1.73;;;;;;;;;;4972854;28;20208;-86
2023/07/01 12:06:46;;;;;;;3.57;2.07;;;;;;;;;;4972934;28;20215;-89
2023/07/01 12:09:28;;;;;;;3.60;2.70;;;;;;;;;;4973324;28;20303;-89
2023/07/01 12:11:57;;;;;;;2.73;1.60;;;;;;;;;;4972247;28;20255;-85
2023/07/01 12:14:26;;;;;;;6.57;2.67;;;;;;;;;;4973010;28;20214;-86
2023/07/01 12:16:56;;;;;;;5.47;2.60;;;;;;;;;;4972620;28;20201;-86
2023/07/01 12:19:26;;;;;;;6.20;2.70;;;;;;;;;;4972228;28;20236;-85
2023/07/01 12:21:56;;;;;;;3.47;2.30;;;;;;;;;;4971988;28;20208;-85
2023/07/01 12:24:25;;;;;;;1.83;1.67;;;;;;;;;;4972989;28;20235;-85
2023/07/01 12:26:54;;;;;;;5.97;2.87;;;;;;;;;;4972565;28;20255;-85
2023/07/01 12:29:23;;;;;;;1.87;1.67;;;;;;;;;;4972012;28;20218;-85
2023/07/01 12:31:53;;;;;;;0.93;0.93;;;;;;;;;;4972610;28;20213;-85
2023/07/01 12:34:23;;;;;;;2.87;1.87;;;;;;;;;;4972583;28;20228;-85
2023/07/01 12:36:52;;;;;;;2.67;1.83;;;;;;;;;;4972098;28;20209;-86
2023/07/01 12:39:20;;;;;;;1.50;1.40;;;;;;;;;;4971790;28;20226;-85
2023/07/01 12:41:49;;;;;;;4.07;2.03;;;;;;;;;;4972329;28;20205;-86
2023/07/01 12:44:18;;;;;;;0.90;0.90;;;;;;;;;;4972518;28;20238;-85
2023/07/01 12:46:46;;;;;;;2.17;1.23;;;;;;;;;;4971812;28;20212;-85
2023/07/01 12:49:15;;;;;;;2.43;2.13;;;;;;;;;;4972062;28;20209;-86
2023/07/01 12:51:45;;;;;;;1.80;1.37;;;;;;;;;;4972422;28;20298;-86
2023/07/01 12:54:14;;;;;;;2.60;1.87;;;;;;;;;;4970839;28;20209;-87
2023/07/01 12:56:46;;;;;;;2.67;2.47;;;;;;;;;;4972001;28;20227;-87
2023/07/01 12:59:15;;;;;;;2.33;1.90;;;;;;;;;;4971399;28;20262;-85
2023/07/01 13:01:46;;;;;;;2.10;1.60;;;;;;;;;;4971639;28;20208;-85
2023/07/01 13:04:17;;;;;;;4.97;2.20;;;;;;;;;;4971497;28;20206;-86
2023/07/01 13:06:49;;;;;;;3.30;1.57;;;;;;;;;;4972075;28;20204;-85
2023/07/01 13:09:19;;;;;;;1.73;1.43;;;;;;;;;;4971563;28;20290;-85
2023/07/01 13:11:48;;;;;;;4.13;1.47;;;;;;;;;;4971778;28;20212;-85
2023/07/01 13:14:16;;;;;;;3.40;2.60;;;;;;;;;;4971789;28;20203;-85
2023/07/01 13:16:45;;;;;;;2.30;1.30;;;;;;;;;;4972155;28;20207;-86
2023/07/01 13:19:14;;;;;;;2.43;1.60;;;;;;;;;;4971967;28;20264;-87
2023/07/01 13:21:43;;;;;;;1.43;1.33;;;;;;;;;;4971781;28;20259;-88
2023/07/01 13:24:14;;;;;;;1.50;1.40;;;;;;;;;;4971537;28;20211;-88
2023/07/01 13:26:42;;;;;;;2.20;1.47;;;;;;;;;;4971933;28;20214;-87
2023/07/01 13:29:12;;;;;;;4.40;1.60;;;;;;;;;;4971985;28;20198;-88
2023/07/01 13:31:41;;;;;;;3.50;1.60;;;;;;;;;;4971506;28;20211;-87
2023/07/01 13:34:10;;;;;;;1.70;1.60;;;;;;;;;;4971928;28;20229;-87
2023/07/01 13:36:39;;;;;;;4.67;2.70;;;;;;;;;;4971909;28;20291;-87
2023/07/01 13:39:12;;;;;;;0.87;0.80;;;;;;;;;;4971257;28;20206;-87
2023/07/01 13:41:42;;;;;;;1.17;1.13;;;;;;;;;;4971804;28;20225;-88
2023/07/01 13:44:17;;;;;;;1.63;1.50;;;;;;;;;;4971418;28;20211;-88
2023/07/01 13:46:45;;;;;;;4.77;3.13;;;;;;;;;;4971287;28;20211;-88
2023/07/01 13:49:18;;;;;;;2.10;1.87;;;;;;;;;;4971333;28;20197;-88
2023/07/01 13:51:47;;;;;;;1.87;1.23;;;;;;;;;;4971292;28;20220;-88
2023/07/01 13:54:18;;;;;;;5.37;2.57;;;;;;;;;;4971460;28;20206;-88
2023/07/01 13:56:48;;;;;;;2.53;1.53;;;;;;;;;;4970720;28;20196;-88
2023/07/01 13:59:17;;;;;;;2.10;0.90;;;;;;;;;;4971277;28;20244;-88
2023/07/01 14:01:52;;;;;;;0.90;0.90;;;;;;;;;;4971182;28;20269;-88
2023/07/01 14:04:22;;;;;;;2.67;1.20;;;;;;;;;;4970838;28;20208;-88
2023/07/01 14:06:51;;;;;;;4.70;1.80;;;;;;;;;;4971330;28;20257;-88
2023/07/01 14:09:22;;;;;;;1.43;1.30;;;;;;;;;;4971358;28;20205;-88
2023/07/01 14:11:51;;;;;;;3.40;1.70;;;;;;;;;;4971083;28;20212;-88
2023/07/01 14:14:20;;;;;;;2.03;1.30;;;;;;;;;;4970714;28;20209;-87
2023/07/01 14:16:49;;;;;;;1.27;1.17;;;;;;;;;;4971652;28;20211;-88
2023/07/01 14:19:19;;;;;;;1.47;1.20;;;;;;;;;;4971069;28;20265;-88
2023/07/01 14:21:49;;;;;;;2.50;1.27;;;;;;;;;;4970736;28;20226;-87
2023/07/01 14:24:23;;;;;;;5.87;1.90;;;;;;;;;;4970510;28;20197;-87
2023/07/01 14:26:54;;;;;;;1.20;1.10;;;;;;;;;;4970828;28;20196;-87
2023/07/01 14:29:22;;;;;;;2.63;1.50;;;;;;;;;;4970583;28;20201;-88
2023/07/01 14:31:51;;;;;;;1.40;1.20;;;;;;;;;;4971212;28;20215;-88
2023/07/01 14:34:22;;;;;;;3.60;1.43;;;;;;;;;;4970863;28;20197;-87
2023/07/01 14:36:54;;;;;;;3.60;1.27;;;;;;;;;;4970785;28;20203;-88
2023/07/01 14:39:30;;;;;;;2.37;0.80;;;;;;;;;;4970292;28;20224;-88
2023/07/01 14:42:00;;;;;;;2.33;1.43;;;;;;;;;;4971176;28;20237;-88
2023/07/01 14:44:28;;;;;;;3.57;2.37;;;;;;;;;;4970905;28;20311;-87
2023/07/01 14:46:57;;;;;;;2.50;1.17;;;;;;;;;;4971073;28;20273;-88
2023/07/01 14:49:26;;;;;;;1.13;1.00;;;;;;;;;;4970253;28;20206;-88
2023/07/01 14:51:54;;;;;;;3.40;1.67;;;;;;;;;;4970939;28;20197;-88
2023/07/01 14:54:23;;;;;;;1.03;1.03;;;;;;;;;;4970338;28;20200;-87
2023/07/01 14:56:52;;;;;;;1.10;1.00;;;;;;;;;;4970154;28;20293;-88